sensor_id;sensor_type;location;lat;lon;timestamp;temperature;humidity
29917;DHT22;16786;49.466;11.068;2022-07-25T00:00:35;23.30;99.90
29917;DHT22;16786;49.466;11.068;2022-07-25T00:03:03;23.30;99.90
29917;DHT22;16786;49.466;11.068;2022-07-25T00:05:35;23.30;99.90
29917;DHT22;16786;49.466;11.068;2022-07-25T00:08:04;23.20;99.90
29917;DHT22;16786;49.466;11.068;2022-07-25T00:10:31;23.20;99.90
29917;DHT22;16786;49.466;11.068;2022-07-25T00:12:59;23.20;99.90
29917;DHT22;16786;49.466;11.068;2022-07-25T00:15:27;23.20;99.90
29917;DHT22;16786;49.466;11.068;2022-07-25T00:17:55;23.10;99.90
29917;DHT22;16786;49.466;11.068;2022-07-25T00:20:22;23.10;99.90
29917;DHT22;16786;49.466;11.068;2022-07-25T00:22:50;23.10;99.90
29917;DHT22;16786;49.466;11.068;2022-07-25T00:25:17;23.00;99.90
29917;DHT22;16786;49.466;11.068;2022-07-25T00:27:44;23.00;99.90
29917;DHT22;16786;49.466;11.068;2022-07-25T00:30:12;23.00;99.90
29917;DHT22;16786;49.466;11.068;2022-07-25T00:32:39;22.90;99.90
29917;DHT22;16786;49.466;11.068;2022-07-25T00:35:07;23.00;99.90
29917;DHT22;16786;49.466;11.068;2022-07-25T00:37:34;22.90;99.90
29917;DHT22;16786;49.466;11.068;2022-07-25T00:40:02;22.90;99.90
29917;DHT22;16786;49.466;11.068;2022-07-25T00:42:30;22.90;99.90
29917;DHT22;16786;49.466;11.068;2022-07-25T00:44:58;22.80;99.90
29917;DHT22;16786;49.466;11.068;2022-07-25T00:47:26;22.80;99.90
29917;DHT22;16786;49.466;11.068;2022-07-25T00:49:53;22.80;99.90
29917;DHT22;16786;49.466;11.068;2022-07-25T00:52:22;22.70;99.90
29917;DHT22;16786;49.466;11.068;2022-07-25T00:54:50;22.70;99.90
29917;DHT22;16786;49.466;11.068;2022-07-25T00:57:18;22.70;99.90
29917;DHT22;16786;49.466;11.068;2022-07-25T00:59:45;22.70;99.90
29917;DHT22;16786;49.466;11.068;2022-07-25T01:02:13;22.70;99.90
29917;DHT22;16786;49.466;11.068;2022-07-25T01:04:40;22.60;99.90
29917;DHT22;16786;49.466;11.068;2022-07-25T01:07:08;22.60;99.90
29917;DHT22;16786;49.466;11.068;2022-07-25T01:09:36;22.60;99.90
29917;DHT22;16786;49.466;11.068;2022-07-25T01:12:03;22.60;99.90
29917;DHT22;16786;49.466;11.068;2022-07-25T01:14:37;22.60;99.90
29917;DHT22;16786;49.466;11.068;2022-07-25T01:17:05;22.60;99.90
29917;DHT22;16786;49.466;11.068;2022-07-25T01:19:32;22.60;99.90
29917;DHT22;16786;49.466;11.068;2022-07-25T01:21:59;22.50;99.90
29917;DHT22;16786;49.466;11.068;2022-07-25T01:24:28;22.50;99.90
29917;DHT22;16786;49.466;11.068;2022-07-25T01:26:55;22.50;99.90
29917;DHT22;16786;49.466;11.068;2022-07-25T01:29:22;22.50;99.90
29917;DHT22;16786;49.466;11.068;2022-07-25T01:31:50;22.50;99.90
29917;DHT22;16786;49.466;11.068;2022-07-25T01:34:17;22.40;99.90
29917;DHT22;16786;49.466;11.068;2022-07-25T01:36:44;22.40;99.90
29917;DHT22;16786;49.466;11.068;2022-07-25T01:39:12;22.40;99.90
29917;DHT22;16786;49.466;11.068;2022-07-25T01:41:39;22.40;99.90
29917;DHT22;16786;49.466;11.068;2022-07-25T01:44:06;22.40;99.90
29917;DHT22;16786;49.466;11.068;2022-07-25T01:46:34;22.40;99.90
29917;DHT22;16786;49.466;11.068;2022-07-25T01:49:01;22.40;99.90
29917;DHT22;16786;49.466;11.068;2022-07-25T01:51:29;22.40;99.90
29917;DHT22;16786;49.466;11.068;2022-07-25T01:53:56;22.30;99.90
29917;DHT22;16786;49.466;11.068;2022-07-25T01:56:23;22.30;99.90
29917;DHT22;16786;49.466;11.068;2022-07-25T01:58:51;22.30;99.90
29917;DHT22;16786;49.466;11.068;2022-07-25T02:01:18;22.20;99.90
29917;DHT22;16786;49.466;11.068;2022-07-25T02:03:48;22.20;99.90
29917;DHT22;16786;49.466;11.068;2022-07-25T02:06:16;22.20;99.90
29917;DHT22;16786;49.466;11.068;2022-07-25T02:08:44;22.20;99.90
29917;DHT22;16786;49.466;11.068;2022-07-25T02:11:12;22.10;99.90
29917;DHT22;16786;49.466;11.068;2022-07-25T02:13:39;22.10;99.90
29917;DHT22;16786;49.466;11.068;2022-07-25T02:16:06;22.10;99.90
29917;DHT22;16786;49.466;11.068;2022-07-25T02:18:34;22.10;99.90
29917;DHT22;16786;49.466;11.068;2022-07-25T02:21:01;22.00;99.90
29917;DHT22;16786;49.466;11.068;2022-07-25T02:23:41;22.00;99.90
29917;DHT22;16786;49.466;11.068;2022-07-25T02:26:09;22.00;99.90
29917;DHT22;16786;49.466;11.068;2022-07-25T02:28:36;22.00;99.90
29917;DHT22;16786;49.466;11.068;2022-07-25T02:31:03;22.00;99.90
29917;DHT22;16786;49.466;11.068;2022-07-25T02:33:31;21.90;99.90
29917;DHT22;16786;49.466;11.068;2022-07-25T02:35:58;21.90;99.90
29917;DHT22;16786;49.466;11.068;2022-07-25T02:38:25;21.90;99.90
29917;DHT22;16786;49.466;11.068;2022-07-25T02:40:53;21.80;99.90
29917;DHT22;16786;49.466;11.068;2022-07-25T02:43:21;21.80;99.90
29917;DHT22;16786;49.466;11.068;2022-07-25T02:45:49;21.80;99.90
29917;DHT22;16786;49.466;11.068;2022-07-25T02:48:16;21.80;99.90
29917;DHT22;16786;49.466;11.068;2022-07-25T02:50:43;21.70;99.90
29917;DHT22;16786;49.466;11.068;2022-07-25T02:53:10;21.70;99.90
29917;DHT22;16786;49.466;11.068;2022-07-25T02:55:38;21.70;99.90
29917;DHT22;16786;49.466;11.068;2022-07-25T02:58:05;21.60;99.90
29917;DHT22;16786;49.466;11.068;2022-07-25T03:00:33;21.60;99.90
29917;DHT22;16786;49.466;11.068;2022-07-25T03:03:00;21.50;99.90
29917;DHT22;16786;49.466;11.068;2022-07-25T03:05:30;21.50;99.90
29917;DHT22;16786;49.466;11.068;2022-07-25T03:07:57;21.50;99.90
29917;DHT22;16786;49.466;11.068;2022-07-25T03:10:24;21.50;99.90
29917;DHT22;16786;49.466;11.068;2022-07-25T03:12:52;21.40;99.90
29917;DHT22;16786;49.466;11.068;2022-07-25T03:15:19;21.40;99.90
29917;DHT22;16786;49.466;11.068;2022-07-25T03:17:46;21.40;99.90
29917;DHT22;16786;49.466;11.068;2022-07-25T03:20:13;21.40;99.90
29917;DHT22;16786;49.466;11.068;2022-07-25T03:22:41;21.40;99.90
29917;DHT22;16786;49.466;11.068;2022-07-25T03:25:08;21.30;99.90
29917;DHT22;16786;49.466;11.068;2022-07-25T03:27:47;21.30;99.90
29917;DHT22;16786;49.466;11.068;2022-07-25T03:30:14;21.30;99.90
29917;DHT22;16786;49.466;11.068;2022-07-25T03:32:42;21.30;99.90
29917;DHT22;16786;49.466;11.068;2022-07-25T03:35:09;21.30;99.90
29917;DHT22;16786;49.466;11.068;2022-07-25T03:37:36;21.30;99.90
29917;DHT22;16786;49.466;11.068;2022-07-25T03:40:04;21.30;99.90
29917;DHT22;16786;49.466;11.068;2022-07-25T03:42:32;21.30;99.90
29917;DHT22;16786;49.466;11.068;2022-07-25T03:45:02;21.30;99.90
29917;DHT22;16786;49.466;11.068;2022-07-25T03:47:29;21.30;99.90
29917;DHT22;16786;49.466;11.068;2022-07-25T03:49:56;21.30;99.90
29917;DHT22;16786;49.466;11.068;2022-07-25T03:52:23;21.30;99.90
29917;DHT22;16786;49.466;11.068;2022-07-25T03:54:51;21.40;99.90
29917;DHT22;16786;49.466;11.068;2022-07-25T03:57:18;21.40;99.90
29917;DHT22;16786;49.466;11.068;2022-07-25T03:59:45;21.40;99.90
29917;DHT22;16786;49.466;11.068;2022-07-25T04:02:13;21.50;99.90
29917;DHT22;16786;49.466;11.068;2022-07-25T04:04:40;21.50;99.90
29917;DHT22;16786;49.466;11.068;2022-07-25T04:07:08;21.50;99.90
29917;DHT22;16786;49.466;11.068;2022-07-25T04:09:36;21.60;99.90
29917;DHT22;16786;49.466;11.068;2022-07-25T04:12:04;21.60;99.90
29917;DHT22;16786;49.466;11.068;2022-07-25T04:14:31;21.70;99.90
29917;DHT22;16786;49.466;11.068;2022-07-25T04:16:58;21.70;99.90
29917;DHT22;16786;49.466;11.068;2022-07-25T04:19:26;21.80;99.90
29917;DHT22;16786;49.466;11.068;2022-07-25T04:21:55;21.80;99.90
29917;DHT22;16786;49.466;11.068;2022-07-25T04:24:22;21.90;99.90
29917;DHT22;16786;49.466;11.068;2022-07-25T04:26:49;21.90;99.90
29917;DHT22;16786;49.466;11.068;2022-07-25T04:29:17;21.90;99.90
29917;DHT22;16786;49.466;11.068;2022-07-25T04:31:44;22.00;99.90
29917;DHT22;16786;49.466;11.068;2022-07-25T04:34:11;21.90;99.90
29917;DHT22;16786;49.466;11.068;2022-07-25T04:36:39;22.00;99.90
29917;DHT22;16786;49.466;11.068;2022-07-25T04:39:06;22.00;99.90
29917;DHT22;16786;49.466;11.068;2022-07-25T04:41:34;22.10;99.90
29917;DHT22;16786;49.466;11.068;2022-07-25T04:44:01;22.10;99.90
29917;DHT22;16786;49.466;11.068;2022-07-25T04:46:29;22.10;99.90
29917;DHT22;16786;49.466;11.068;2022-07-25T04:48:56;22.10;99.90
29917;DHT22;16786;49.466;11.068;2022-07-25T04:51:24;22.20;99.90
29917;DHT22;16786;49.466;11.068;2022-07-25T04:53:51;22.20;99.90
29917;DHT22;16786;49.466;11.068;2022-07-25T04:56:18;22.20;99.90
29917;DHT22;16786;49.466;11.068;2022-07-25T04:58:45;22.30;99.90
29917;DHT22;16786;49.466;11.068;2022-07-25T05:01:13;22.30;99.90
29917;DHT22;16786;49.466;11.068;2022-07-25T05:03:40;22.30;99.90
29917;DHT22;16786;49.466;11.068;2022-07-25T05:06:17;22.40;99.90
29917;DHT22;16786;49.466;11.068;2022-07-25T05:08:44;22.40;99.90
29917;DHT22;16786;49.466;11.068;2022-07-25T05:11:12;22.50;99.90
29917;DHT22;16786;49.466;11.068;2022-07-25T05:13:39;22.50;99.90
29917;DHT22;16786;49.466;11.068;2022-07-25T05:16:06;22.50;99.90
29917;DHT22;16786;49.466;11.068;2022-07-25T05:18:34;22.60;99.90
29917;DHT22;16786;49.466;11.068;2022-07-25T05:21:01;22.60;99.90
29917;DHT22;16786;49.466;11.068;2022-07-25T05:23:29;22.60;99.90
29917;DHT22;16786;49.466;11.068;2022-07-25T05:25:56;22.70;99.90
29917;DHT22;16786;49.466;11.068;2022-07-25T05:28:23;22.70;99.90
29917;DHT22;16786;49.466;11.068;2022-07-25T05:30:50;22.80;99.90
29917;DHT22;16786;49.466;11.068;2022-07-25T05:33:18;22.80;99.90
29917;DHT22;16786;49.466;11.068;2022-07-25T05:35:45;22.90;99.90
29917;DHT22;16786;49.466;11.068;2022-07-25T05:38:12;23.00;99.90
29917;DHT22;16786;49.466;11.068;2022-07-25T05:40:39;23.10;99.90
29917;DHT22;16786;49.466;11.068;2022-07-25T05:43:07;23.10;99.90
29917;DHT22;16786;49.466;11.068;2022-07-25T05:45:35;23.20;99.90
29917;DHT22;16786;49.466;11.068;2022-07-25T05:48:02;23.20;99.90
29917;DHT22;16786;49.466;11.068;2022-07-25T05:50:29;23.30;99.90
29917;DHT22;16786;49.466;11.068;2022-07-25T05:52:57;23.40;99.90
29917;DHT22;16786;49.466;11.068;2022-07-25T05:55:24;23.50;99.90
29917;DHT22;16786;49.466;11.068;2022-07-25T05:57:52;23.60;99.90
29917;DHT22;16786;49.466;11.068;2022-07-25T06:00:19;23.70;99.90
29917;DHT22;16786;49.466;11.068;2022-07-25T06:02:46;23.80;99.90
29917;DHT22;16786;49.466;11.068;2022-07-25T06:05:14;23.90;99.90
29917;DHT22;16786;49.466;11.068;2022-07-25T06:07:41;23.90;99.90
29917;DHT22;16786;49.466;11.068;2022-07-25T06:10:09;24.00;99.90
29917;DHT22;16786;49.466;11.068;2022-07-25T06:12:36;24.20;99.90
29917;DHT22;16786;49.466;11.068;2022-07-25T06:15:04;24.30;99.90
29917;DHT22;16786;49.466;11.068;2022-07-25T06:17:32;24.40;99.90
29917;DHT22;16786;49.466;11.068;2022-07-25T06:19:59;24.50;99.90
29917;DHT22;16786;49.466;11.068;2022-07-25T06:22:27;24.60;99.90
29917;DHT22;16786;49.466;11.068;2022-07-25T06:24:55;24.60;99.90
29917;DHT22;16786;49.466;11.068;2022-07-25T06:27:23;24.70;99.90
29917;DHT22;16786;49.466;11.068;2022-07-25T06:29:55;24.80;99.90
29917;DHT22;16786;49.466;11.068;2022-07-25T06:32:22;24.90;99.90
29917;DHT22;16786;49.466;11.068;2022-07-25T06:34:50;25.00;99.90
29917;DHT22;16786;49.466;11.068;2022-07-25T06:37:17;25.10;99.90
29917;DHT22;16786;49.466;11.068;2022-07-25T06:39:45;25.20;99.90
29917;DHT22;16786;49.466;11.068;2022-07-25T06:42:12;25.30;99.90
29917;DHT22;16786;49.466;11.068;2022-07-25T06:44:39;25.40;99.90
29917;DHT22;16786;49.466;11.068;2022-07-25T06:47:07;25.50;99.90
29917;DHT22;16786;49.466;11.068;2022-07-25T06:49:41;25.60;99.90
29917;DHT22;16786;49.466;11.068;2022-07-25T06:52:09;25.70;99.90
29917;DHT22;16786;49.466;11.068;2022-07-25T06:54:36;25.80;99.90
29917;DHT22;16786;49.466;11.068;2022-07-25T06:57:04;25.90;99.90
29917;DHT22;16786;49.466;11.068;2022-07-25T06:59:31;26.00;99.90
29917;DHT22;16786;49.466;11.068;2022-07-25T07:01:59;26.10;99.90
29917;DHT22;16786;49.466;11.068;2022-07-25T07:04:27;26.20;99.90
29917;DHT22;16786;49.466;11.068;2022-07-25T07:06:54;26.30;99.90
29917;DHT22;16786;49.466;11.068;2022-07-25T07:09:21;26.40;99.90
29917;DHT22;16786;49.466;11.068;2022-07-25T07:11:49;26.50;99.90
29917;DHT22;16786;49.466;11.068;2022-07-25T07:14:16;26.60;99.90
29917;DHT22;16786;49.466;11.068;2022-07-25T07:16:43;26.70;99.90
29917;DHT22;16786;49.466;11.068;2022-07-25T07:19:10;26.80;99.90
29917;DHT22;16786;49.466;11.068;2022-07-25T07:21:41;26.90;99.90
29917;DHT22;16786;49.466;11.068;2022-07-25T07:24:10;27.00;99.90
29917;DHT22;16786;49.466;11.068;2022-07-25T07:26:51;27.10;99.90
29917;DHT22;16786;49.466;11.068;2022-07-25T07:29:19;27.20;99.90
29917;DHT22;16786;49.466;11.068;2022-07-25T07:31:47;27.20;99.90
29917;DHT22;16786;49.466;11.068;2022-07-25T07:34:14;27.40;99.90
29917;DHT22;16786;49.466;11.068;2022-07-25T07:36:42;27.50;99.90
29917;DHT22;16786;49.466;11.068;2022-07-25T07:39:10;27.50;99.90
29917;DHT22;16786;49.466;11.068;2022-07-25T07:41:37;27.60;99.90
29917;DHT22;16786;49.466;11.068;2022-07-25T07:44:05;27.60;99.90
29917;DHT22;16786;49.466;11.068;2022-07-25T07:46:32;27.70;99.90
29917;DHT22;16786;49.466;11.068;2022-07-25T07:49:00;27.80;99.90
29917;DHT22;16786;49.466;11.068;2022-07-25T07:51:27;27.80;99.90
29917;DHT22;16786;49.466;11.068;2022-07-25T07:53:54;27.90;99.90
29917;DHT22;16786;49.466;11.068;2022-07-25T07:56:40;28.00;99.90
29917;DHT22;16786;49.466;11.068;2022-07-25T07:59:08;28.10;99.90
29917;DHT22;16786;49.466;11.068;2022-07-25T08:01:36;28.30;99.90
29917;DHT22;16786;49.466;11.068;2022-07-25T08:04:03;28.40;99.90
29917;DHT22;16786;49.466;11.068;2022-07-25T08:06:31;28.50;99.90
29917;DHT22;16786;49.466;11.068;2022-07-25T08:08:58;28.50;99.90
29917;DHT22;16786;49.466;11.068;2022-07-25T08:11:25;28.60;99.90
29917;DHT22;16786;49.466;11.068;2022-07-25T08:13:52;28.70;99.90
29917;DHT22;16786;49.466;11.068;2022-07-25T08:16:20;28.80;99.90
29917;DHT22;16786;49.466;11.068;2022-07-25T08:18:47;28.90;99.90
29917;DHT22;16786;49.466;11.068;2022-07-25T08:21:14;28.90;99.90
29917;DHT22;16786;49.466;11.068;2022-07-25T08:23:42;29.00;99.90
29917;DHT22;16786;49.466;11.068;2022-07-25T08:26:11;29.10;99.90
29917;DHT22;16786;49.466;11.068;2022-07-25T08:28:40;29.20;99.90
29917;DHT22;16786;49.466;11.068;2022-07-25T08:31:08;29.30;99.90
29917;DHT22;16786;49.466;11.068;2022-07-25T08:33:36;29.40;99.90
29917;DHT22;16786;49.466;11.068;2022-07-25T08:36:03;29.50;99.90
29917;DHT22;16786;49.466;11.068;2022-07-25T08:38:31;29.60;99.90
29917;DHT22;16786;49.466;11.068;2022-07-25T08:40:58;29.70;99.90
29917;DHT22;16786;49.466;11.068;2022-07-25T08:43:26;29.80;99.90
29917;DHT22;16786;49.466;11.068;2022-07-25T08:45:55;29.90;99.90
29917;DHT22;16786;49.466;11.068;2022-07-25T08:48:24;30.00;99.90
29917;DHT22;16786;49.466;11.068;2022-07-25T08:50:54;30.20;99.90
29917;DHT22;16786;49.466;11.068;2022-07-25T08:53:24;30.20;99.90
29917;DHT22;16786;49.466;11.068;2022-07-25T08:56:03;30.30;99.40
29917;DHT22;16786;49.466;11.068;2022-07-25T08:58:38;30.40;98.90
29917;DHT22;16786;49.466;11.068;2022-07-25T09:01:05;30.40;98.60
29917;DHT22;16786;49.466;11.068;2022-07-25T09:03:34;30.50;97.40
29917;DHT22;16786;49.466;11.068;2022-07-25T09:08:57;30.40;97.10
29917;DHT22;16786;49.466;11.068;2022-07-25T09:13:58;30.60;96.80
29917;DHT22;16786;49.466;11.068;2022-07-25T09:16:31;30.60;96.50
29917;DHT22;16786;49.466;11.068;2022-07-25T09:19:25;30.60;96.50
29917;DHT22;16786;49.466;11.068;2022-07-25T09:22:03;30.80;96.40
29917;DHT22;16786;49.466;11.068;2022-07-25T09:24:33;30.80;96.10
29917;DHT22;16786;49.466;11.068;2022-07-25T09:27:08;30.80;96.30
29917;DHT22;16786;49.466;11.068;2022-07-25T09:29:39;31.00;96.40
29917;DHT22;16786;49.466;11.068;2022-07-25T09:32:17;31.10;96.20
29917;DHT22;16786;49.466;11.068;2022-07-25T09:34:46;31.00;96.10
29917;DHT22;16786;49.466;11.068;2022-07-25T09:37:18;31.10;96.10
29917;DHT22;16786;49.466;11.068;2022-07-25T09:39:50;31.30;95.80
29917;DHT22;16786;49.466;11.068;2022-07-25T09:45:16;31.60;95.30
29917;DHT22;16786;49.466;11.068;2022-07-25T09:47:54;31.60;95.20
29917;DHT22;16786;49.466;11.068;2022-07-25T09:50:23;31.80;95.00
29917;DHT22;16786;49.466;11.068;2022-07-25T09:52:52;31.60;94.90
29917;DHT22;16786;49.466;11.068;2022-07-25T09:55:20;31.80;94.90
29917;DHT22;16786;49.466;11.068;2022-07-25T09:57:48;32.00;94.70
29917;DHT22;16786;49.466;11.068;2022-07-25T10:00:20;32.10;94.00
29917;DHT22;16786;49.466;11.068;2022-07-25T10:06:10;32.50;93.10
29917;DHT22;16786;49.466;11.068;2022-07-25T10:08:40;32.50;92.90
29917;DHT22;16786;49.466;11.068;2022-07-25T10:11:23;32.50;92.80
29917;DHT22;16786;49.466;11.068;2022-07-25T10:13:53;32.40;92.70
29917;DHT22;16786;49.466;11.068;2022-07-25T10:18:53;32.40;92.40
29917;DHT22;16786;49.466;11.068;2022-07-25T10:21:22;32.70;92.00
29917;DHT22;16786;49.466;11.068;2022-07-25T10:24:03;32.90;91.80
29917;DHT22;16786;49.466;11.068;2022-07-25T10:26:35;33.10;91.60
29917;DHT22;16786;49.466;11.068;2022-07-25T10:29:09;33.10;91.40
29917;DHT22;16786;49.466;11.068;2022-07-25T10:31:42;33.30;91.20
29917;DHT22;16786;49.466;11.068;2022-07-25T10:34:29;33.40;91.00
29917;DHT22;16786;49.466;11.068;2022-07-25T10:37:11;33.50;90.70
29917;DHT22;16786;49.466;11.068;2022-07-25T10:39:41;33.60;90.70
29917;DHT22;16786;49.466;11.068;2022-07-25T10:42:15;33.80;90.50
29917;DHT22;16786;49.466;11.068;2022-07-25T10:44:46;34.00;90.20
29917;DHT22;16786;49.466;11.068;2022-07-25T10:47:14;34.00;90.10
29917;DHT22;16786;49.466;11.068;2022-07-25T10:49:44;34.20;89.10
29917;DHT22;16786;49.466;11.068;2022-07-25T10:52:40;34.20;89.00
29917;DHT22;16786;49.466;11.068;2022-07-25T10:55:08;34.40;88.90
29917;DHT22;16786;49.466;11.068;2022-07-25T10:57:35;34.50;88.40
29917;DHT22;16786;49.466;11.068;2022-07-25T11:00:24;34.40;87.60
29917;DHT22;16786;49.466;11.068;2022-07-25T11:02:55;34.20;86.00
29917;DHT22;16786;49.466;11.068;2022-07-25T11:05:23;34.40;85.80
29917;DHT22;16786;49.466;11.068;2022-07-25T11:07:52;34.60;85.00
29917;DHT22;16786;49.466;11.068;2022-07-25T11:10:40;34.70;82.80
29917;DHT22;16786;49.466;11.068;2022-07-25T11:13:16;34.70;81.60
29917;DHT22;16786;49.466;11.068;2022-07-25T11:15:44;34.70;80.50
29917;DHT22;16786;49.466;11.068;2022-07-25T11:18:12;34.60;81.00
29917;DHT22;16786;49.466;11.068;2022-07-25T11:20:39;34.90;81.10
29917;DHT22;16786;49.466;11.068;2022-07-25T11:23:07;35.20;80.80
29917;DHT22;16786;49.466;11.068;2022-07-25T11:25:35;35.60;80.50
29917;DHT22;16786;49.466;11.068;2022-07-25T11:28:03;35.50;80.90
29917;DHT22;16786;49.466;11.068;2022-07-25T11:30:31;35.50;81.40
29917;DHT22;16786;49.466;11.068;2022-07-25T11:32:59;35.70;81.10
29917;DHT22;16786;49.466;11.068;2022-07-25T11:35:31;35.80;80.90
29917;DHT22;16786;49.466;11.068;2022-07-25T11:38:00;35.90;80.30
29917;DHT22;16786;49.466;11.068;2022-07-25T11:40:29;35.70;80.40
29917;DHT22;16786;49.466;11.068;2022-07-25T11:43:00;36.10;79.50
29917;DHT22;16786;49.466;11.068;2022-07-25T11:45:30;36.40;77.50
29917;DHT22;16786;49.466;11.068;2022-07-25T11:48:11;36.20;77.50
29917;DHT22;16786;49.466;11.068;2022-07-25T11:50:42;36.40;75.80
29917;DHT22;16786;49.466;11.068;2022-07-25T11:53:12;36.30;75.30
29917;DHT22;16786;49.466;11.068;2022-07-25T11:55:42;36.90;74.40
29917;DHT22;16786;49.466;11.068;2022-07-25T11:58:11;36.60;71.90
29917;DHT22;16786;49.466;11.068;2022-07-25T12:00:45;36.50;72.10
29917;DHT22;16786;49.466;11.068;2022-07-25T12:03:15;36.50;71.80
29917;DHT22;16786;49.466;11.068;2022-07-25T12:05:47;36.70;71.20
29917;DHT22;16786;49.466;11.068;2022-07-25T12:08:17;36.80;69.80
29917;DHT22;16786;49.466;11.068;2022-07-25T12:10:46;37.00;70.20
29917;DHT22;16786;49.466;11.068;2022-07-25T12:13:26;37.00;71.70
29917;DHT22;16786;49.466;11.068;2022-07-25T12:15:56;37.30;71.60
29917;DHT22;16786;49.466;11.068;2022-07-25T12:18:23;37.60;71.50
29917;DHT22;16786;49.466;11.068;2022-07-25T12:20:51;38.20;70.00
29917;DHT22;16786;49.466;11.068;2022-07-25T12:23:19;38.30;69.00
29917;DHT22;16786;49.466;11.068;2022-07-25T12:25:48;38.90;67.90
29917;DHT22;16786;49.466;11.068;2022-07-25T12:28:16;38.50;67.30
29917;DHT22;16786;49.466;11.068;2022-07-25T12:30:44;39.00;66.50
29917;DHT22;16786;49.466;11.068;2022-07-25T12:33:12;39.70;66.50
29917;DHT22;16786;49.466;11.068;2022-07-25T12:35:40;40.20;63.70
29917;DHT22;16786;49.466;11.068;2022-07-25T12:38:08;40.50;63.80
29917;DHT22;16786;49.466;11.068;2022-07-25T12:40:37;40.60;63.40
29917;DHT22;16786;49.466;11.068;2022-07-25T12:43:04;39.90;63.00
29917;DHT22;16786;49.466;11.068;2022-07-25T12:45:32;39.70;63.40
29917;DHT22;16786;49.466;11.068;2022-07-25T12:47:59;39.30;63.90
29917;DHT22;16786;49.466;11.068;2022-07-25T12:50:27;39.10;64.20
29917;DHT22;16786;49.466;11.068;2022-07-25T12:52:54;39.30;63.70
29917;DHT22;16786;49.466;11.068;2022-07-25T12:55:21;39.10;63.80
29917;DHT22;16786;49.466;11.068;2022-07-25T12:57:49;39.30;63.70
29917;DHT22;16786;49.466;11.068;2022-07-25T13:00:19;39.60;63.30
29917;DHT22;16786;49.466;11.068;2022-07-25T13:02:47;39.10;62.50
29917;DHT22;16786;49.466;11.068;2022-07-25T13:05:18;38.20;62.70
29917;DHT22;16786;49.466;11.068;2022-07-25T13:07:47;37.80;63.40
29917;DHT22;16786;49.466;11.068;2022-07-25T13:10:16;38.50;62.60
29917;DHT22;16786;49.466;11.068;2022-07-25T13:12:44;38.70;61.30
29917;DHT22;16786;49.466;11.068;2022-07-25T13:15:12;39.60;60.60
29917;DHT22;16786;49.466;11.068;2022-07-25T13:17:39;39.30;58.20
29917;DHT22;16786;49.466;11.068;2022-07-25T13:20:08;39.60;58.30
29917;DHT22;16786;49.466;11.068;2022-07-25T13:22:35;39.40;58.10
29917;DHT22;16786;49.466;11.068;2022-07-25T13:25:03;39.40;56.90
29917;DHT22;16786;49.466;11.068;2022-07-25T13:27:31;38.80;56.90
29917;DHT22;16786;49.466;11.068;2022-07-25T13:29:58;38.90;56.90
29917;DHT22;16786;49.466;11.068;2022-07-25T13:32:26;39.20;55.10
29917;DHT22;16786;49.466;11.068;2022-07-25T13:34:54;39.40;54.80
29917;DHT22;16786;49.466;11.068;2022-07-25T13:37:22;39.30;54.80
29917;DHT22;16786;49.466;11.068;2022-07-25T13:39:49;39.10;55.10
29917;DHT22;16786;49.466;11.068;2022-07-25T13:42:17;39.00;54.90
29917;DHT22;16786;49.466;11.068;2022-07-25T13:44:44;39.20;54.80
29917;DHT22;16786;49.466;11.068;2022-07-25T13:47:12;40.00;53.60
29917;DHT22;16786;49.466;11.068;2022-07-25T13:49:39;40.10;53.00
29917;DHT22;16786;49.466;11.068;2022-07-25T13:52:07;39.40;53.20
29917;DHT22;16786;49.466;11.068;2022-07-25T13:54:34;39.00;53.60
29917;DHT22;16786;49.466;11.068;2022-07-25T13:57:02;40.00;53.40
29917;DHT22;16786;49.466;11.068;2022-07-25T13:59:29;40.80;52.40
29917;DHT22;16786;49.466;11.068;2022-07-25T14:01:57;40.50;52.70
29917;DHT22;16786;49.466;11.068;2022-07-25T14:04:24;41.80;52.00
29917;DHT22;16786;49.466;11.068;2022-07-25T14:06:52;42.10;51.40
29917;DHT22;16786;49.466;11.068;2022-07-25T14:09:20;42.50;51.40
29917;DHT22;16786;49.466;11.068;2022-07-25T14:11:47;42.70;50.70
29917;DHT22;16786;49.466;11.068;2022-07-25T14:14:15;43.80;50.00
29917;DHT22;16786;49.466;11.068;2022-07-25T14:16:42;44.70;48.70
29917;DHT22;16786;49.466;11.068;2022-07-25T14:19:10;44.10;49.80
29917;DHT22;16786;49.466;11.068;2022-07-25T14:21:37;44.70;48.20
29917;DHT22;16786;49.466;11.068;2022-07-25T14:24:06;44.00;48.80
29917;DHT22;16786;49.466;11.068;2022-07-25T14:26:34;44.80;48.10
29917;DHT22;16786;49.466;11.068;2022-07-25T14:29:01;44.90;48.00
29917;DHT22;16786;49.466;11.068;2022-07-25T14:31:29;45.20;47.80
29917;DHT22;16786;49.466;11.068;2022-07-25T14:33:59;45.40;47.80
29917;DHT22;16786;49.466;11.068;2022-07-25T14:36:26;45.40;47.00
29917;DHT22;16786;49.466;11.068;2022-07-25T14:38:53;45.40;47.10
29917;DHT22;16786;49.466;11.068;2022-07-25T14:41:21;45.00;47.00
29917;DHT22;16786;49.466;11.068;2022-07-25T14:43:48;44.90;47.10
29917;DHT22;16786;49.466;11.068;2022-07-25T14:46:15;43.90;47.80
29917;DHT22;16786;49.466;11.068;2022-07-25T14:48:43;43.10;48.60
29917;DHT22;16786;49.466;11.068;2022-07-25T14:51:10;42.10;49.50
29917;DHT22;16786;49.466;11.068;2022-07-25T14:53:38;40.70;50.40
29917;DHT22;16786;49.466;11.068;2022-07-25T14:56:05;40.10;51.40
29917;DHT22;16786;49.466;11.068;2022-07-25T14:58:33;40.90;51.20
29917;DHT22;16786;49.466;11.068;2022-07-25T15:01:00;42.90;50.30
29917;DHT22;16786;49.466;11.068;2022-07-25T15:03:28;43.50;49.20
29917;DHT22;16786;49.466;11.068;2022-07-25T15:05:56;43.50;49.20
29917;DHT22;16786;49.466;11.068;2022-07-25T15:08:23;41.80;50.30
29917;DHT22;16786;49.466;11.068;2022-07-25T15:10:50;40.20;51.70
29917;DHT22;16786;49.466;11.068;2022-07-25T15:13:18;39.30;53.10
29917;DHT22;16786;49.466;11.068;2022-07-25T15:16:02;39.10;53.60
29917;DHT22;16786;49.466;11.068;2022-07-25T15:18:30;37.60;55.10
29917;DHT22;16786;49.466;11.068;2022-07-25T15:20:57;36.70;56.30
29917;DHT22;16786;49.466;11.068;2022-07-25T15:23:24;36.10;57.20
29917;DHT22;16786;49.466;11.068;2022-07-25T15:25:57;35.80;58.00
29917;DHT22;16786;49.466;11.068;2022-07-25T15:28:32;35.50;58.80
29917;DHT22;16786;49.466;11.068;2022-07-25T15:31:00;35.70;58.80
29917;DHT22;16786;49.466;11.068;2022-07-25T15:33:27;35.70;59.10
29917;DHT22;16786;49.466;11.068;2022-07-25T15:35:55;35.40;59.60
29917;DHT22;16786;49.466;11.068;2022-07-25T15:38:22;35.60;59.50